createdAt,value
2019-05-20T00:00:07.890Z,3.50
2019-05-20T00:02:36.238Z,3.20
2019-05-20T00:05:04.791Z,3.03
2019-05-20T00:07:33.071Z,3.30
2019-05-20T00:10:01.355Z,3.43
2019-05-20T00:12:29.707Z,3.43
2019-05-20T00:14:58.089Z,3.10
2019-05-20T00:17:26.448Z,3.30
2019-05-20T00:19:54.792Z,3.13
2019-05-20T00:22:23.094Z,3.03
2019-05-20T00:24:51.360Z,3.43
2019-05-20T00:27:19.652Z,3.47
2019-05-20T00:29:47.995Z,3.50
2019-05-20T00:32:16.277Z,3.40
2019-05-20T00:34:44.552Z,3.80
2019-05-20T00:37:12.846Z,3.00
2019-05-20T00:39:41.181Z,3.30
2019-05-20T00:42:09.471Z,3.40
2019-05-20T00:44:38.963Z,3.67
2019-05-20T00:47:07.301Z,3.50
2019-05-20T00:49:35.578Z,3.50
2019-05-20T00:52:03.932Z,3.17
2019-05-20T00:54:32.254Z,3.20
2019-05-20T00:57:00.534Z,3.73
2019-05-20T00:59:28.809Z,3.13
2019-05-20T01:01:57.173Z,3.60
2019-05-20T01:04:25.435Z,3.60
2019-05-20T01:06:53.802Z,3.30
2019-05-20T01:09:22.146Z,3.53
2019-05-20T01:11:50.429Z,4.17
2019-05-20T01:14:18.777Z,3.60
2019-05-20T01:16:47.190Z,3.80
2019-05-20T01:19:15.472Z,3.70
2019-05-20T01:21:43.755Z,3.80
2019-05-20T01:24:12.037Z,3.63
2019-05-20T01:26:40.342Z,3.43
2019-05-20T01:29:08.679Z,3.57
2019-05-20T01:31:37.049Z,3.90
2019-05-20T01:34:05.325Z,3.23
2019-05-20T01:36:33.702Z,3.90
2019-05-20T01:39:02.046Z,3.70
2019-05-20T01:41:30.394Z,3.63
2019-05-20T01:43:58.752Z,3.93
2019-05-20T01:46:27.023Z,3.90
2019-05-20T01:48:55.321Z,4.13
2019-05-20T01:51:23.591Z,3.87
2019-05-20T01:53:51.890Z,3.70
2019-05-20T01:56:20.170Z,4.00
2019-05-20T01:58:48.461Z,4.10
2019-05-20T02:01:16.730Z,4.00
2019-05-20T02:03:45.105Z,3.93
2019-05-20T02:06:13.386Z,4.17
2019-05-20T02:08:41.743Z,3.53
2019-05-20T02:11:10.014Z,3.80
2019-05-20T02:13:56.148Z,3.93
2019-05-20T02:16:26.146Z,3.93
2019-05-20T02:18:54.503Z,4.40
2019-05-20T02:21:22.779Z,4.33
2019-05-20T02:23:51.150Z,4.20
2019-05-20T02:26:19.501Z,4.40
2019-05-20T02:28:47.856Z,4.30
2019-05-20T02:31:16.127Z,4.17
2019-05-20T02:33:51.714Z,4.30
2019-05-20T02:36:14.491Z,4.10
2019-05-20T02:38:42.845Z,4.20
2019-05-20T02:41:11.198Z,4.47
2019-05-20T02:43:39.499Z,4.27
2019-05-20T02:46:07.838Z,4.50
2019-05-20T02:48:36.131Z,4.77
2019-05-20T02:51:04.475Z,4.37
2019-05-20T02:53:32.787Z,4.20
2019-05-20T02:56:01.132Z,4.57
2019-05-20T02:58:29.479Z,4.37
2019-05-20T03:00:57.847Z,4.67
2019-05-20T03:03:26.187Z,4.40
2019-05-20T03:05:54.467Z,3.97
2019-05-20T03:08:22.908Z,4.03
2019-05-20T03:10:51.191Z,4.10
2019-05-20T03:13:19.498Z,4.70
2019-05-20T03:15:47.838Z,4.30
2019-05-20T03:18:16.188Z,4.10
2019-05-20T03:20:44.543Z,4.57
2019-05-20T03:23:12.989Z,4.13
2019-05-20T03:25:41.290Z,4.43
2019-05-20T03:28:09.640Z,4.70
2019-05-20T03:30:38.017Z,4.37
2019-05-20T03:33:06.359Z,4.83
2019-05-20T03:35:34.739Z,4.50
2019-05-20T03:38:03.070Z,3.93
2019-05-20T03:40:31.427Z,4.13
2019-05-20T03:42:59.789Z,4.00
2019-05-20T03:45:28.156Z,4.60
2019-05-20T03:47:56.517Z,4.13
2019-05-20T03:50:24.898Z,4.30
2019-05-20T03:52:53.177Z,4.53
2019-05-20T03:55:21.466Z,4.23
2019-05-20T03:57:49.753Z,4.13
2019-05-20T04:00:21.374Z,4.50
2019-05-20T04:02:49.718Z,4.37
2019-05-20T04:05:18.098Z,4.70
2019-05-20T04:07:46.384Z,4.37
2019-05-20T04:10:14.726Z,3.97
2019-05-20T04:12:43.082Z,4.43
2019-05-20T04:15:11.441Z,4.80
2019-05-20T04:17:39.802Z,4.17
2019-05-20T04:20:08.104Z,4.07
2019-05-20T04:22:36.476Z,4.27
2019-05-20T04:25:06.193Z,4.37
2019-05-20T04:27:34.555Z,4.10
2019-05-20T04:30:02.836Z,4.00
2019-05-20T04:32:32.109Z,4.20
2019-05-20T04:35:00.409Z,4.17
2019-05-20T04:37:28.776Z,4.20
2019-05-20T04:39:57.134Z,4.20
2019-05-20T04:42:25.614Z,4.10
2019-05-20T04:44:54.012Z,4.03
2019-05-20T04:47:22.346Z,4.00
2019-05-20T04:49:50.624Z,4.33
2019-05-20T04:52:18.984Z,4.03
2019-05-20T04:54:47.326Z,4.20
2019-05-20T04:57:15.638Z,4.10
2019-05-20T04:59:44.003Z,4.47
2019-05-20T05:02:12.375Z,4.03
2019-05-20T05:04:40.666Z,4.07
2019-05-20T05:07:09.029Z,3.97
2019-05-20T05:09:37.304Z,4.00
2019-05-20T05:12:05.675Z,4.07
2019-05-20T05:14:34.023Z,4.23
2019-05-20T05:17:02.310Z,4.47
2019-05-20T05:19:30.606Z,3.90
2019-05-20T05:21:58.989Z,4.40
2019-05-20T05:24:27.322Z,4.13
2019-05-20T05:26:55.703Z,4.20
2019-05-20T05:29:24.031Z,4.23
2019-05-20T05:31:52.302Z,4.17
2019-05-20T05:34:20.611Z,4.10
2019-05-20T05:36:49.011Z,4.23
2019-05-20T05:39:17.395Z,4.50
2019-05-20T05:41:45.683Z,4.60
2019-05-20T05:44:14.045Z,4.50
2019-05-20T05:46:42.308Z,4.33
2019-05-20T05:49:10.604Z,4.00
2019-05-20T05:51:38.899Z,4.27
2019-05-20T05:54:07.267Z,4.13
2019-05-20T05:56:35.607Z,4.30
2019-05-20T05:59:03.911Z,4.37
2019-05-20T06:01:32.187Z,4.33
2019-05-20T06:04:00.554Z,4.43
2019-05-20T06:06:28.833Z,4.27
2019-05-20T06:08:57.130Z,4.23
2019-05-20T06:11:25.412Z,3.90
2019-05-20T06:13:53.755Z,4.43
2019-05-20T06:16:35.916Z,4.67
2019-05-20T06:18:52.025Z,3.87
2019-05-20T06:21:20.319Z,3.80
2019-05-20T06:23:48.588Z,4.17
2019-05-20T06:26:16.877Z,4.50
2019-05-20T06:28:45.152Z,4.00
2019-05-20T06:31:13.519Z,4.03
2019-05-20T06:33:41.882Z,4.27
2019-05-20T06:36:10.171Z,3.97
2019-05-20T06:38:40.083Z,3.90
2019-05-20T06:41:08.746Z,4.27
2019-05-20T06:43:37.074Z,4.03
2019-05-20T06:46:05.370Z,4.03
2019-05-20T06:48:33.661Z,4.10
2019-05-20T06:51:02.075Z,3.97
2019-05-20T06:53:30.369Z,4.30
2019-05-20T06:55:58.646Z,4.50
2019-05-20T06:58:27.005Z,3.90
2019-05-20T07:00:55.283Z,4.10
2019-05-20T07:03:23.583Z,3.93
2019-05-20T07:05:51.931Z,3.83
2019-05-20T07:08:20.444Z,3.93
2019-05-20T07:10:48.810Z,3.87
2019-05-20T07:13:17.166Z,3.83
2019-05-20T07:15:45.521Z,4.10
2019-05-20T07:18:13.811Z,3.97
2019-05-20T07:20:42.145Z,3.87
2019-05-20T07:23:10.439Z,4.03
2019-05-20T07:25:38.745Z,3.80
2019-05-20T07:28:07.033Z,3.93
2019-05-20T07:30:35.311Z,4.00
2019-05-20T07:33:03.623Z,4.20
2019-05-20T07:35:32.583Z,3.70
2019-05-20T07:38:00.976Z,3.87
2019-05-20T07:40:31.115Z,4.00
2019-05-20T07:42:59.563Z,4.00
2019-05-20T07:45:28.489Z,4.17
2019-05-20T07:47:56.858Z,3.67
2019-05-20T07:50:25.150Z,3.70
2019-05-20T07:52:53.501Z,3.77
2019-05-20T07:55:21.946Z,3.67
2019-05-20T07:57:50.312Z,3.77
2019-05-20T08:00:18.593Z,3.73
2019-05-20T08:02:46.957Z,3.60
2019-05-20T08:05:15.272Z,3.97
2019-05-20T08:07:51.953Z,3.87
2019-05-20T08:10:13.717Z,3.70
2019-05-20T08:12:42.040Z,3.80
2019-05-20T08:15:10.345Z,3.57
2019-05-20T08:17:38.682Z,4.17
2019-05-20T08:20:06.978Z,4.10
2019-05-20T08:22:35.261Z,3.50
2019-05-20T08:25:06.274Z,4.10
2019-05-20T08:27:34.555Z,3.60
2019-05-20T08:30:03.292Z,3.80
2019-05-20T08:32:33.276Z,4.00
2019-05-20T08:35:01.710Z,3.63
2019-05-20T08:37:44.409Z,3.60
2019-05-20T08:40:00.220Z,3.77
2019-05-20T08:42:28.519Z,3.70
2019-05-20T08:44:56.797Z,3.53
2019-05-20T08:47:25.091Z,3.47
2019-05-20T08:49:53.473Z,3.70
2019-05-20T08:52:21.906Z,3.60
2019-05-20T08:54:50.253Z,3.83
2019-05-20T08:57:18.631Z,3.43
2019-05-20T08:59:46.906Z,3.47
2019-05-20T09:02:15.184Z,3.33
2019-05-20T09:04:43.557Z,3.60
2019-05-20T09:07:11.924Z,3.40
2019-05-20T09:09:40.376Z,3.77
2019-05-20T09:12:08.979Z,3.30
2019-05-20T09:14:40.411Z,3.57
2019-05-20T09:17:07.318Z,3.63
2019-05-20T09:19:35.625Z,3.17
2019-05-20T09:22:03.970Z,3.43
2019-05-20T09:24:32.412Z,3.40
2019-05-20T09:27:00.701Z,3.70
2019-05-20T09:29:29.082Z,3.80
2019-05-20T09:31:57.441Z,3.60
2019-05-20T09:34:25.797Z,3.87
2019-05-20T09:36:54.140Z,3.17
2019-05-20T09:39:22.451Z,3.33
2019-05-20T09:41:50.794Z,3.40
2019-05-20T09:44:19.157Z,3.43
2019-05-20T09:46:47.430Z,3.10
2019-05-20T09:49:15.790Z,3.40
2019-05-20T09:51:44.068Z,3.40
2019-05-20T09:54:12.375Z,3.83
2019-05-20T09:56:40.716Z,3.60
2019-05-20T09:59:09.093Z,3.40
2019-05-20T10:01:40.058Z,3.10
2019-05-20T10:04:07.414Z,3.37
2019-05-20T10:06:35.720Z,3.67
2019-05-20T10:09:06.090Z,3.20
2019-05-20T10:11:34.379Z,3.40
2019-05-20T10:14:02.670Z,3.10
2019-05-20T10:16:30.963Z,3.40
2019-05-20T10:18:59.348Z,3.30
2019-05-20T10:21:27.679Z,3.13
2019-05-20T10:23:55.989Z,2.73
2019-05-20T10:26:24.276Z,3.03
2019-05-20T10:28:52.626Z,3.40
2019-05-20T10:31:21.031Z,3.30
2019-05-20T10:33:49.379Z,3.10
2019-05-20T10:36:17.752Z,3.10
2019-05-20T10:38:57.841Z,3.33
2019-05-20T10:41:16.115Z,3.60
2019-05-20T10:43:44.396Z,3.40
2019-05-20T10:46:12.754Z,2.93
2019-05-20T10:48:41.045Z,3.20
2019-05-20T10:51:10.462Z,2.80
2019-05-20T10:53:39.268Z,3.10
2019-05-20T10:56:07.561Z,2.90
2019-05-20T10:58:35.837Z,3.00
2019-05-20T11:01:04.117Z,2.83
2019-05-20T11:03:32.489Z,2.90
2019-05-20T11:06:00.760Z,2.90
2019-05-20T11:08:29.039Z,3.20
2019-05-20T11:10:57.324Z,3.50
2019-05-20T11:13:25.683Z,3.10
2019-05-20T11:15:54.011Z,2.83
2019-05-20T11:18:22.339Z,3.17
2019-05-20T11:20:50.670Z,3.40
2019-05-20T11:23:18.962Z,2.93
2019-05-20T11:25:47.231Z,3.10
2019-05-20T11:28:15.596Z,3.23
2019-05-20T11:30:43.959Z,2.93
2019-05-20T11:33:12.328Z,3.00
2019-05-20T11:35:40.657Z,2.83
2019-05-20T11:38:08.963Z,3.00
2019-05-20T11:40:37.311Z,2.70
2019-05-20T11:43:05.585Z,2.90
2019-05-20T11:45:33.866Z,3.07
2019-05-20T11:48:02.219Z,2.83
2019-05-20T11:50:30.522Z,2.87
2019-05-20T11:52:58.873Z,3.13
2019-05-20T11:55:27.185Z,2.90
2019-05-20T11:57:55.595Z,2.97
2019-05-20T12:00:24.042Z,2.83
2019-05-20T12:02:52.407Z,2.90
2019-05-20T12:05:20.687Z,2.90
2019-05-20T12:07:49.066Z,2.90
2019-05-20T12:10:17.436Z,3.00
2019-05-20T12:12:46.251Z,3.13
2019-05-20T12:15:15.040Z,3.33
2019-05-20T12:17:43.322Z,3.03
2019-05-20T12:20:12.790Z,2.87
2019-05-20T12:22:41.522Z,2.87
2019-05-20T12:25:09.822Z,2.87
2019-05-20T12:27:38.109Z,2.77
2019-05-20T12:30:06.473Z,3.13
2019-05-20T12:32:34.748Z,3.00
2019-05-20T12:35:03.915Z,2.93
2019-05-20T12:37:32.260Z,2.80
2019-05-20T12:40:07.268Z,2.97
2019-05-20T12:42:30.554Z,2.90
2019-05-20T12:44:58.850Z,3.10
2019-05-20T12:47:27.126Z,3.07
2019-05-20T12:49:55.442Z,2.90
2019-05-20T12:52:23.783Z,3.00
2019-05-20T12:55:06.883Z,2.80
2019-05-20T12:57:22.126Z,2.83
2019-05-20T12:59:50.420Z,3.03
2019-05-20T13:02:18.697Z,3.07
2019-05-20T13:04:46.995Z,2.80
2019-05-20T13:07:15.359Z,2.87
2019-05-20T13:09:43.711Z,3.07
2019-05-20T13:12:11.984Z,2.90
2019-05-20T13:14:40.280Z,2.50
2019-05-20T13:17:08.632Z,3.00
2019-05-20T13:19:37.080Z,2.83
2019-05-20T13:22:05.419Z,3.00
2019-05-20T13:24:33.775Z,2.70
2019-05-20T13:27:02.136Z,2.80
2019-05-20T13:29:30.410Z,2.93
2019-05-20T13:31:58.704Z,3.13
2019-05-20T13:34:27.072Z,3.00
2019-05-20T13:36:55.357Z,3.00
2019-05-20T13:39:23.630Z,3.20
2019-05-20T13:41:51.924Z,3.20
2019-05-20T13:44:20.205Z,3.00
2019-05-20T13:46:48.490Z,3.13
2019-05-20T13:49:16.767Z,2.93
2019-05-20T13:51:45.082Z,3.10
2019-05-20T13:54:13.352Z,2.90
2019-05-20T13:56:41.637Z,2.90
2019-05-20T13:59:09.996Z,2.87
2019-05-20T14:01:38.338Z,3.33
2019-05-20T14:04:06.626Z,3.40
2019-05-20T14:06:34.920Z,3.00
2019-05-20T14:09:07.333Z,2.93
2019-05-20T14:11:35.021Z,3.07
2019-05-20T14:14:03.722Z,3.27
2019-05-20T14:16:32.005Z,3.00
2019-05-20T14:19:00.283Z,3.20
2019-05-20T14:21:29.134Z,3.07
2019-05-20T14:23:57.423Z,2.90
2019-05-20T14:26:25.808Z,2.50
2019-05-20T14:28:54.112Z,3.20
2019-05-20T14:31:22.413Z,2.80
2019-05-20T14:33:50.766Z,2.77
2019-05-20T14:36:37.835Z,2.90
2019-05-20T14:38:49.051Z,2.97
2019-05-20T14:41:21.518Z,2.93
2019-05-20T14:43:47.412Z,3.10
2019-05-20T14:46:15.692Z,2.80
2019-05-20T14:48:43.964Z,3.03
2019-05-20T14:51:12.331Z,3.03
2019-05-20T14:53:40.671Z,3.17
2019-05-20T14:56:09.042Z,3.40
2019-05-20T14:58:37.377Z,2.90
2019-05-20T15:01:05.663Z,3.07
2019-05-20T15:03:33.959Z,2.67
2019-05-20T15:06:02.369Z,3.20
2019-05-20T15:08:34.283Z,2.80
2019-05-20T15:11:00.700Z,2.70
2019-05-20T15:13:29.046Z,2.50
2019-05-20T15:15:57.429Z,2.80
2019-05-20T15:18:25.777Z,2.70
2019-05-20T15:20:54.137Z,2.40
2019-05-20T15:23:22.414Z,2.90
2019-05-20T15:25:50.771Z,2.80
2019-05-20T15:28:19.053Z,2.30
2019-05-20T15:30:47.406Z,2.70
2019-05-20T15:33:15.691Z,2.60
2019-05-20T15:35:44.001Z,2.43
2019-05-20T15:38:12.333Z,2.53
2019-05-20T15:40:40.601Z,2.40
2019-05-20T15:43:08.895Z,2.33
2019-05-20T15:45:37.165Z,2.63
2019-05-20T15:48:05.459Z,2.57
2019-05-20T15:50:33.821Z,2.30
2019-05-20T15:53:02.182Z,2.40
2019-05-20T15:55:30.529Z,2.50
2019-05-20T15:57:58.899Z,2.43
2019-05-20T16:00:27.175Z,2.50
2019-05-20T16:02:55.466Z,2.10
2019-05-20T16:05:23.774Z,2.80
2019-05-20T16:07:52.107Z,3.10
2019-05-20T16:10:20.386Z,3.13
2019-05-20T16:12:48.663Z,3.20
2019-05-20T16:15:16.959Z,3.50
2019-05-20T16:17:48.142Z,3.63
2019-05-20T16:20:15.245Z,3.77
2019-05-20T16:22:43.601Z,4.10
2019-05-20T16:25:11.987Z,4.00
2019-05-20T16:27:40.350Z,3.70
2019-05-20T16:30:11.766Z,3.97
2019-05-20T16:32:40.103Z,4.10
2019-05-20T16:35:08.401Z,3.63
2019-05-20T16:37:36.744Z,3.97
2019-05-20T16:40:07.787Z,4.47
2019-05-20T16:42:36.087Z,3.83
2019-05-20T16:45:11.703Z,4.23
2019-05-20T16:47:38.684Z,3.83
2019-05-20T16:50:08.289Z,4.20
2019-05-20T16:52:37.075Z,4.30
2019-05-20T16:55:06.407Z,4.50
2019-05-20T16:57:34.694Z,4.00
2019-05-20T17:00:03.066Z,4.53
2019-05-20T17:02:31.375Z,3.90
2019-05-20T17:04:59.711Z,4.33
2019-05-20T17:07:28.065Z,4.17
2019-05-20T17:09:56.385Z,4.20
2019-05-20T17:12:24.726Z,4.40
2019-05-20T17:14:53.023Z,3.87
2019-05-20T17:17:21.294Z,3.90
2019-05-20T17:19:49.600Z,3.77
2019-05-20T17:22:54.150Z,3.80
2019-05-20T17:25:22.501Z,4.17
2019-05-20T17:27:50.802Z,4.00
2019-05-20T17:30:19.078Z,4.00
2019-05-20T17:32:47.366Z,3.67
2019-05-20T17:35:15.637Z,3.97
2019-05-20T17:37:43.936Z,4.00
2019-05-20T17:40:32.821Z,4.10
2019-05-20T17:43:01.110Z,3.90
2019-05-20T17:45:29.383Z,3.90
2019-05-20T17:47:57.671Z,3.33
2019-05-20T17:50:26.014Z,3.93
2019-05-20T17:52:54.307Z,3.43
2019-05-20T17:55:22.702Z,3.23
2019-05-20T17:57:51.170Z,3.50
2019-05-20T18:00:21.163Z,3.83
2019-05-20T18:02:49.443Z,3.63
2019-05-20T18:05:17.812Z,4.03
2019-05-20T18:07:46.084Z,3.67
2019-05-20T18:10:15.958Z,3.40
2019-05-20T18:12:44.234Z,3.53
2019-05-20T18:15:13.295Z,3.40
2019-05-20T18:17:41.592Z,3.40
2019-05-20T18:20:09.946Z,3.40
2019-05-20T18:22:38.299Z,3.27
2019-05-20T18:25:08.239Z,3.10
2019-05-20T18:27:36.574Z,3.43
2019-05-20T18:30:07.831Z,3.70
2019-05-20T18:32:38.515Z,3.30
2019-05-20T18:35:07.254Z,2.90
2019-05-20T18:37:35.546Z,3.00
2019-05-20T18:40:14.032Z,3.43
2019-05-20T18:42:35.792Z,3.10
2019-05-20T18:45:06.277Z,3.30
2019-05-20T18:47:34.574Z,3.47
2019-05-20T18:50:04.810Z,3.47
2019-05-20T18:52:33.193Z,3.37
2019-05-20T18:55:01.581Z,3.00
2019-05-20T18:57:29.946Z,3.23
2019-05-20T18:59:58.319Z,3.20
2019-05-20T19:02:26.677Z,3.00
2019-05-20T19:04:55.042Z,3.10
2019-05-20T19:07:23.397Z,3.00
2019-05-20T19:09:51.758Z,2.97
2019-05-20T19:12:20.123Z,3.27
2019-05-20T19:14:48.406Z,3.33
2019-05-20T19:17:16.701Z,3.50
2019-05-20T19:19:44.996Z,2.87
2019-05-20T19:22:13.296Z,2.93
2019-05-20T19:24:41.585Z,3.37
2019-05-20T19:27:10.698Z,3.27
2019-05-20T19:29:39.058Z,3.00
2019-05-20T19:32:07.344Z,3.10
2019-05-20T19:34:38.899Z,3.13
2019-05-20T19:37:07.230Z,3.33
2019-05-20T19:39:35.590Z,3.23
2019-05-20T19:42:03.881Z,3.20
2019-05-20T19:44:32.175Z,2.77
2019-05-20T19:47:00.530Z,3.37
2019-05-20T19:49:28.899Z,3.70
2019-05-20T19:51:57.236Z,3.20
2019-05-20T19:54:25.564Z,2.83
2019-05-20T19:56:53.980Z,2.93
2019-05-20T19:59:22.274Z,2.90
2019-05-20T20:01:50.548Z,3.13
2019-05-20T20:04:18.828Z,2.87
2019-05-20T20:06:47.192Z,3.10
2019-05-20T20:09:16.236Z,2.90
2019-05-20T20:11:44.533Z,3.03
2019-05-20T20:14:12.886Z,2.67
2019-05-20T20:16:41.236Z,3.27
2019-05-20T20:19:09.516Z,2.90
2019-05-20T20:21:38.323Z,3.00
2019-05-20T20:24:09.376Z,3.20
2019-05-20T20:26:36.767Z,2.80
2019-05-20T20:29:05.038Z,3.00
2019-05-20T20:31:34.090Z,3.10
2019-05-20T20:34:02.450Z,2.97
2019-05-20T20:36:30.808Z,3.00
2019-05-20T20:38:59.113Z,2.70
2019-05-20T20:41:27.381Z,2.73
2019-05-20T20:43:55.673Z,3.10
2019-05-20T20:46:23.950Z,3.03
2019-05-20T20:48:52.246Z,2.93
2019-05-20T20:51:20.591Z,2.77
2019-05-20T20:53:48.883Z,2.90
2019-05-20T20:56:25.300Z,3.00
2019-05-20T20:58:47.158Z,2.73
2019-05-20T21:01:15.431Z,3.23
2019-05-20T21:03:43.752Z,3.03
2019-05-20T21:06:12.068Z,2.90
2019-05-20T21:08:40.428Z,3.10
2019-05-20T21:11:08.686Z,2.50
2019-05-20T21:13:36.983Z,2.77
2019-05-20T21:16:05.335Z,2.90
2019-05-20T21:18:33.641Z,3.07
2019-05-20T21:21:02.001Z,2.60
2019-05-20T21:23:30.358Z,2.53
2019-05-20T21:25:58.639Z,2.70
2019-05-20T21:28:26.908Z,2.80
2019-05-20T21:30:55.193Z,2.80
2019-05-20T21:33:23.483Z,2.80
2019-05-20T21:35:51.867Z,2.60
2019-05-20T21:38:20.210Z,2.80
2019-05-20T21:40:48.695Z,2.97
2019-05-20T21:43:17.033Z,3.10
2019-05-20T21:45:45.341Z,2.97
2019-05-20T21:48:13.613Z,3.10
2019-05-20T21:50:41.898Z,3.00
2019-05-20T21:53:10.178Z,2.87
2019-05-20T21:55:38.475Z,2.97
2019-05-20T21:58:06.745Z,3.03
2019-05-20T22:00:36.672Z,2.70
2019-05-20T22:03:04.950Z,2.80
2019-05-20T22:05:33.244Z,2.80
2019-05-20T22:08:04.150Z,2.77
2019-05-20T22:10:31.529Z,3.17
2019-05-20T22:12:59.873Z,2.93
2019-05-20T22:15:28.157Z,2.63
2019-05-20T22:17:56.510Z,2.93
2019-05-20T22:20:24.837Z,2.73
2019-05-20T22:23:12.793Z,3.20
2019-05-20T22:25:41.085Z,2.73
2019-05-20T22:28:12.769Z,2.83
2019-05-20T22:30:39.371Z,2.50
2019-05-20T22:33:07.659Z,2.93
2019-05-20T22:35:37.053Z,2.90
2019-05-20T22:38:05.349Z,2.90
2019-05-20T22:40:33.697Z,3.10
2019-05-20T22:43:01.979Z,2.80
2019-05-20T22:45:30.349Z,2.90
2019-05-20T22:47:58.627Z,3.20
2019-05-20T22:50:26.929Z,2.70
2019-05-20T22:52:55.206Z,2.73
2019-05-20T22:55:23.515Z,2.80
2019-05-20T22:57:51.795Z,2.90
2019-05-20T23:00:20.141Z,2.80
2019-05-20T23:02:48.498Z,2.90
2019-05-20T23:05:16.779Z,2.97
2019-05-20T23:07:45.151Z,2.90
2019-05-20T23:10:14.298Z,2.90
2019-05-20T23:12:42.577Z,3.13
2019-05-20T23:15:10.932Z,2.80
2019-05-20T23:17:39.297Z,3.00
2019-05-20T23:20:07.569Z,2.80
2019-05-20T23:22:35.861Z,2.53
2019-05-20T23:25:04.677Z,2.93
2019-05-20T23:27:33.027Z,3.13
2019-05-20T23:30:01.298Z,3.00
2019-05-20T23:32:29.646Z,3.00
2019-05-20T23:34:57.918Z,2.90
2019-05-20T23:37:26.214Z,2.83
2019-05-20T23:39:54.488Z,3.10
2019-05-20T23:42:22.765Z,2.90
2019-05-20T23:44:51.041Z,2.87
2019-05-20T23:47:19.410Z,2.97
2019-05-20T23:49:47.686Z,2.97
2019-05-20T23:52:15.970Z,2.77
2019-05-20T23:54:44.307Z,3.27
2019-05-20T23:57:12.597Z,2.80
2019-05-20T23:59:40.864Z,3.10
